sensor_id;sensor_type;location;lat;lon;timestamp;pressure;altitude;pressure_sealevel;temperature
13304;BMP280;6720;51.958;4.540;2022-12-20T00:02:02;101013.56;;;11.10
13304;BMP280;6720;51.958;4.540;2022-12-20T00:04:27;101006.56;;;11.12
13304;BMP280;6720;51.958;4.540;2022-12-20T00:06:52;100997.00;;;11.08
13304;BMP280;6720;51.958;4.540;2022-12-20T00:09:18;101003.03;;;11.13
13304;BMP280;6720;51.958;4.540;2022-12-20T00:11:43;100997.72;;;11.17
13304;BMP280;6720;51.958;4.540;2022-12-20T00:14:09;100995.94;;;11.19
13304;BMP280;6720;51.958;4.540;2022-12-20T00:16:35;101002.94;;;11.19
13304;BMP280;6720;51.958;4.540;2022-12-20T00:19:03;101011.66;;;11.19
13304;BMP280;6720;51.958;4.540;2022-12-20T00:21:30;101015.06;;;11.26
13304;BMP280;6720;51.958;4.540;2022-12-20T00:23:57;101013.38;;;11.22
13304;BMP280;6720;51.958;4.540;2022-12-20T00:26:25;101005.50;;;11.23
13304;BMP280;6720;51.958;4.540;2022-12-20T00:28:51;101008.03;;;11.28
13304;BMP280;6720;51.958;4.540;2022-12-20T00:31:18;100998.38;;;11.32
13304;BMP280;6720;51.958;4.540;2022-12-20T00:33:46;101007.00;;;11.37
13304;BMP280;6720;51.958;4.540;2022-12-20T00:36:12;101012.41;;;11.27
13304;BMP280;6720;51.958;4.540;2022-12-20T00:38:38;100999.25;;;11.29
13304;BMP280;6720;51.958;4.540;2022-12-20T00:41:05;100986.38;;;11.17
13304;BMP280;6720;51.958;4.540;2022-12-20T00:43:32;100993.25;;;11.24
13304;BMP280;6720;51.958;4.540;2022-12-20T00:45:58;100973.19;;;11.21
13304;BMP280;6720;51.958;4.540;2022-12-20T00:48:23;100984.66;;;11.16
13304;BMP280;6720;51.958;4.540;2022-12-20T00:50:49;100981.09;;;11.18
13304;BMP280;6720;51.958;4.540;2022-12-20T00:53:15;100983.72;;;11.20
13304;BMP280;6720;51.958;4.540;2022-12-20T00:55:41;100962.03;;;11.10
13304;BMP280;6720;51.958;4.540;2022-12-20T00:58:07;100954.31;;;11.03
13304;BMP280;6720;51.958;4.540;2022-12-20T01:00:33;100951.63;;;11.06
13304;BMP280;6720;51.958;4.540;2022-12-20T01:02:58;100945.69;;;10.95
13304;BMP280;6720;51.958;4.540;2022-12-20T01:05:23;100933.50;;;10.94
13304;BMP280;6720;51.958;4.540;2022-12-20T01:07:49;100924.72;;;10.96
13304;BMP280;6720;51.958;4.540;2022-12-20T01:10:14;100950.03;;;10.99
13304;BMP280;6720;51.958;4.540;2022-12-20T01:12:39;100957.88;;;10.99
13304;BMP280;6720;51.958;4.540;2022-12-20T01:15:07;100957.94;;;10.96
13304;BMP280;6720;51.958;4.540;2022-12-20T01:17:32;100956.03;;;11.04
13304;BMP280;6720;51.958;4.540;2022-12-20T01:19:58;100938.59;;;11.03
13304;BMP280;6720;51.958;4.540;2022-12-20T01:22:42;100942.09;;;11.02
13304;BMP280;6720;51.958;4.540;2022-12-20T01:25:19;100936.03;;;11.00
13304;BMP280;6720;51.958;4.540;2022-12-20T01:27:45;100940.41;;;10.98
13304;BMP280;6720;51.958;4.540;2022-12-20T01:30:11;100937.91;;;10.92
13304;BMP280;6720;51.958;4.540;2022-12-20T01:32:36;100947.34;;;11.02
13304;BMP280;6720;51.958;4.540;2022-12-20T01:35:17;100943.88;;;11.00
13304;BMP280;6720;51.958;4.540;2022-12-20T01:37:42;100937.75;;;11.01
13304;BMP280;6720;51.958;4.540;2022-12-20T01:40:08;100934.22;;;11.02
13304;BMP280;6720;51.958;4.540;2022-12-20T01:42:35;100932.59;;;10.96
13304;BMP280;6720;51.958;4.540;2022-12-20T01:45:01;100924.81;;;10.93
13304;BMP280;6720;51.958;4.540;2022-12-20T01:47:29;100917.91;;;10.88
13304;BMP280;6720;51.958;4.540;2022-12-20T01:49:57;100924.91;;;10.86
13304;BMP280;6720;51.958;4.540;2022-12-20T01:52:38;100899.88;;;10.70
13304;BMP280;6720;51.958;4.540;2022-12-20T02:00:26;100926.75;;;10.81
13304;BMP280;6720;51.958;4.540;2022-12-20T02:02:51;100931.13;;;10.80
13304;BMP280;6720;51.958;4.540;2022-12-20T02:05:19;100924.19;;;10.78
13304;BMP280;6720;51.958;4.540;2022-12-20T02:07:48;100926.84;;;10.75
13304;BMP280;6720;51.958;4.540;2022-12-20T02:10:16;100912.28;;;10.59
13304;BMP280;6720;51.958;4.540;2022-12-20T02:12:44;100906.97;;;10.63
13304;BMP280;6720;51.958;4.540;2022-12-20T02:18:17;100940.06;;;10.69
13304;BMP280;6720;51.958;4.540;2022-12-20T02:23:51;100925.31;;;10.62
13304;BMP280;6720;51.958;4.540;2022-12-20T02:29:24;100913.81;;;10.70
13304;BMP280;6720;51.958;4.540;2022-12-20T02:34:38;100919.88;;;10.74
13304;BMP280;6720;51.958;4.540;2022-12-20T02:37:05;100914.59;;;10.77
13304;BMP280;6720;51.958;4.540;2022-12-20T02:39:32;100888.56;;;10.68
13304;BMP280;6720;51.958;4.540;2022-12-20T02:42:10;100895.34;;;10.81
13304;BMP280;6720;51.958;4.540;2022-12-20T02:44:40;100905.75;;;10.84
13304;BMP280;6720;51.958;4.540;2022-12-20T02:47:36;100884.91;;;10.78
13304;BMP280;6720;51.958;4.540;2022-12-20T02:50:05;100888.25;;;10.86
13304;BMP280;6720;51.958;4.540;2022-12-20T02:52:32;100890.81;;;10.89
13304;BMP280;6720;51.958;4.540;2022-12-20T02:54:58;100891.56;;;10.97
13304;BMP280;6720;51.958;4.540;2022-12-20T02:57:30;100888.03;;;10.98
13304;BMP280;6720;51.958;4.540;2022-12-20T03:02:28;100885.38;;;10.99
13304;BMP280;6720;51.958;4.540;2022-12-20T03:05:14;100887.00;;;11.06
13304;BMP280;6720;51.958;4.540;2022-12-20T03:07:40;100898.50;;;10.98
13304;BMP280;6720;51.958;4.540;2022-12-20T03:10:05;100887.03;;;11.05
13304;BMP280;6720;51.958;4.540;2022-12-20T03:12:31;100883.59;;;11.03
13304;BMP280;6720;51.958;4.540;2022-12-20T03:14:56;100888.69;;;11.10
13304;BMP280;6720;51.958;4.540;2022-12-20T03:17:22;100881.75;;;11.08
13304;BMP280;6720;51.958;4.540;2022-12-20T03:19:47;100879.94;;;11.10
13304;BMP280;6720;51.958;4.540;2022-12-20T03:22:13;100877.31;;;11.10
13304;BMP280;6720;51.958;4.540;2022-12-20T03:24:38;100880.00;;;11.08
13304;BMP280;6720;51.958;4.540;2022-12-20T03:27:03;100871.97;;;11.16
13304;BMP280;6720;51.958;4.540;2022-12-20T03:29:29;100881.50;;;11.21
13304;BMP280;6720;51.958;4.540;2022-12-20T03:31:54;100877.03;;;11.25
13304;BMP280;6720;51.958;4.540;2022-12-20T03:34:19;100864.88;;;11.21
13304;BMP280;6720;51.958;4.540;2022-12-20T03:36:45;100870.97;;;11.23
13304;BMP280;6720;51.958;4.540;2022-12-20T03:39:10;100873.56;;;11.26
13304;BMP280;6720;51.958;4.540;2022-12-20T03:41:36;100869.75;;;11.41
13304;BMP280;6720;51.958;4.540;2022-12-20T03:44:01;100861.94;;;11.38
13304;BMP280;6720;51.958;4.540;2022-12-20T03:46:27;100874.22;;;11.37
13304;BMP280;6720;51.958;4.540;2022-12-20T03:48:52;100876.75;;;11.40
13304;BMP280;6720;51.958;4.540;2022-12-20T03:51:17;100871.41;;;11.46
13304;BMP280;6720;51.958;4.540;2022-12-20T03:53:43;100880.94;;;11.49
13304;BMP280;6720;51.958;4.540;2022-12-20T03:56:09;100883.31;;;11.62
13304;BMP280;6720;51.958;4.540;2022-12-20T03:58:34;100866.81;;;11.56
13304;BMP280;6720;51.958;4.540;2022-12-20T04:01:00;100873.69;;;11.64
13304;BMP280;6720;51.958;4.540;2022-12-20T04:03:25;100870.84;;;11.73
13304;BMP280;6720;51.958;4.540;2022-12-20T04:05:50;100856.84;;;11.74
13304;BMP280;6720;51.958;4.540;2022-12-20T04:08:16;100862.00;;;11.79
13304;BMP280;6720;51.958;4.540;2022-12-20T04:10:41;100892.75;;;11.72
13304;BMP280;6720;51.958;4.540;2022-12-20T04:13:25;100858.84;;;11.63
13304;BMP280;6720;51.958;4.540;2022-12-20T04:15:50;100853.75;;;11.54
13304;BMP280;6720;51.958;4.540;2022-12-20T04:18:15;100862.34;;;11.62
13304;BMP280;6720;51.958;4.540;2022-12-20T04:20:41;100858.88;;;11.60
13304;BMP280;6720;51.958;4.540;2022-12-20T04:23:06;100868.50;;;11.60
13304;BMP280;6720;51.958;4.540;2022-12-20T04:25:32;100857.41;;;11.46
13304;BMP280;6720;51.958;4.540;2022-12-20T04:27:57;100858.19;;;11.51
13304;BMP280;6720;51.958;4.540;2022-12-20T04:30:22;100867.69;;;11.56
13304;BMP280;6720;51.958;4.540;2022-12-20T04:32:48;100853.94;;;11.45
13304;BMP280;6720;51.958;4.540;2022-12-20T04:35:13;100855.66;;;11.46
13304;BMP280;6720;51.958;4.540;2022-12-20T04:37:39;100859.28;;;11.41
13304;BMP280;6720;51.958;4.540;2022-12-20T04:40:05;100859.25;;;11.42
13304;BMP280;6720;51.958;4.540;2022-12-20T04:42:31;100859.25;;;11.42
13304;BMP280;6720;51.958;4.540;2022-12-20T04:44:57;100844.44;;;11.40
13304;BMP280;6720;51.958;4.540;2022-12-20T04:47:22;100823.63;;;11.32
13304;BMP280;6720;51.958;4.540;2022-12-20T04:49:48;100838.28;;;11.42
13304;BMP280;6720;51.958;4.540;2022-12-20T04:52:13;100817.50;;;11.33
13304;BMP280;6720;51.958;4.540;2022-12-20T04:55:08;100829.50;;;11.43
13304;BMP280;6720;51.958;4.540;2022-12-20T04:57:33;100820.81;;;11.41
13304;BMP280;6720;51.958;4.540;2022-12-20T04:59:58;100810.41;;;11.38
13304;BMP280;6720;51.958;4.540;2022-12-20T05:02:24;100817.31;;;11.42
13304;BMP280;6720;51.958;4.540;2022-12-20T05:04:49;100812.00;;;11.45
13304;BMP280;6720;51.958;4.540;2022-12-20T05:07:15;100798.06;;;11.43
13304;BMP280;6720;51.958;4.540;2022-12-20T05:09:40;100805.81;;;11.48
13304;BMP280;6720;51.958;4.540;2022-12-20T05:12:05;100785.72;;;11.48
13304;BMP280;6720;51.958;4.540;2022-12-20T05:14:31;100782.06;;;11.55
13304;BMP280;6720;51.958;4.540;2022-12-20T05:16:56;100778.69;;;11.50
13304;BMP280;6720;51.958;4.540;2022-12-20T05:19:22;100774.28;;;11.52
13304;BMP280;6720;51.958;4.540;2022-12-20T05:21:47;100790.72;;;11.60
13304;BMP280;6720;51.958;4.540;2022-12-20T05:24:42;100793.34;;;11.59
13304;BMP280;6720;51.958;4.540;2022-12-20T05:27:26;100781.19;;;11.56
13304;BMP280;6720;51.958;4.540;2022-12-20T05:29:51;100793.31;;;11.60
13304;BMP280;6720;51.958;4.540;2022-12-20T05:32:17;100788.16;;;11.57
13304;BMP280;6720;51.958;4.540;2022-12-20T05:34:42;100782.94;;;11.56
13304;BMP280;6720;51.958;4.540;2022-12-20T05:37:07;100785.31;;;11.68
13304;BMP280;6720;51.958;4.540;2022-12-20T05:39:33;100775.03;;;11.57
13304;BMP280;6720;51.958;4.540;2022-12-20T05:41:58;100776.66;;;11.64
13304;BMP280;6720;51.958;4.540;2022-12-20T05:44:24;100790.69;;;11.63
13304;BMP280;6720;51.958;4.540;2022-12-20T05:46:49;100778.38;;;11.65
13304;BMP280;6720;51.958;4.540;2022-12-20T05:49:14;100779.09;;;11.72
13304;BMP280;6720;51.958;4.540;2022-12-20T05:51:40;100772.91;;;11.74
13304;BMP280;6720;51.958;4.540;2022-12-20T05:54:05;100775.63;;;11.71
13304;BMP280;6720;51.958;4.540;2022-12-20T05:56:31;100765.28;;;11.65
13304;BMP280;6720;51.958;4.540;2022-12-20T05:58:56;100769.34;;;11.78
13304;BMP280;6720;51.958;4.540;2022-12-20T06:01:23;100774.78;;;11.69
13304;BMP280;6720;51.958;4.540;2022-12-20T06:03:48;100783.41;;;11.74
13304;BMP280;6720;51.958;4.540;2022-12-20T06:06:15;100779.84;;;11.78
13304;BMP280;6720;51.958;4.540;2022-12-20T06:08:41;100775.47;;;11.77
13304;BMP280;6720;51.958;4.540;2022-12-20T06:11:06;100769.41;;;11.75
13304;BMP280;6720;51.958;4.540;2022-12-20T06:13:31;100753.75;;;11.72
13304;BMP280;6720;51.958;4.540;2022-12-20T06:15:57;100765.88;;;11.76
13304;BMP280;6720;51.958;4.540;2022-12-20T06:18:24;100760.59;;;11.79
13304;BMP280;6720;51.958;4.540;2022-12-20T06:20:52;100754.34;;;11.85
13304;BMP280;6720;51.958;4.540;2022-12-20T06:23:18;100758.78;;;11.81
13304;BMP280;6720;51.958;4.540;2022-12-20T06:25:44;100768.31;;;11.84
13304;BMP280;6720;51.958;4.540;2022-12-20T06:28:10;100763.00;;;11.87
13304;BMP280;6720;51.958;4.540;2022-12-20T06:30:36;100749.28;;;11.76
13304;BMP280;6720;51.958;4.540;2022-12-20T06:33:02;100761.03;;;11.96
13304;BMP280;6720;51.958;4.540;2022-12-20T06:35:29;100768.38;;;11.82
13304;BMP280;6720;51.958;4.540;2022-12-20T06:37:54;100786.59;;;11.88
13304;BMP280;6720;51.958;4.540;2022-12-20T06:40:20;100770.03;;;11.86
13304;BMP280;6720;51.958;4.540;2022-12-20T06:42:46;100765.53;;;11.91
13304;BMP280;6720;51.958;4.540;2022-12-20T06:45:11;100765.53;;;11.91
13304;BMP280;6720;51.958;4.540;2022-12-20T06:47:37;100761.94;;;11.95
13304;BMP280;6720;51.958;4.540;2022-12-20T06:50:04;100751.53;;;11.91
13304;BMP280;6720;51.958;4.540;2022-12-20T06:52:30;100755.03;;;11.91
13304;BMP280;6720;51.958;4.540;2022-12-20T06:54:55;100760.41;;;11.85
13304;BMP280;6720;51.958;4.540;2022-12-20T06:57:21;100768.91;;;11.96
13304;BMP280;6720;51.958;4.540;2022-12-20T06:59:46;100767.03;;;12.03
13304;BMP280;6720;51.958;4.540;2022-12-20T07:02:12;100774.00;;;12.02
13304;BMP280;6720;51.958;4.540;2022-12-20T07:04:37;100761.91;;;11.97
13304;BMP280;6720;51.958;4.540;2022-12-20T07:07:17;100782.63;;;12.07
13304;BMP280;6720;51.958;4.540;2022-12-20T07:10:14;100744.47;;;11.94
13304;BMP280;6720;51.958;4.540;2022-12-20T07:12:51;100746.25;;;11.92
13304;BMP280;6720;51.958;4.540;2022-12-20T07:15:17;100770.34;;;12.09
13304;BMP280;6720;51.958;4.540;2022-12-20T07:17:42;100766.94;;;12.04
13304;BMP280;6720;51.958;4.540;2022-12-20T07:20:09;100788.03;;;12.01
13304;BMP280;6720;51.958;4.540;2022-12-20T07:22:34;100789.75;;;12.02
13304;BMP280;6720;51.958;4.540;2022-12-20T07:25:00;100783.69;;;11.99
13304;BMP280;6720;51.958;4.540;2022-12-20T07:27:25;100785.41;;;12.01
13304;BMP280;6720;51.958;4.540;2022-12-20T07:29:51;100775.91;;;11.97
13304;BMP280;6720;51.958;4.540;2022-12-20T07:32:16;100772.50;;;11.92
13304;BMP280;6720;51.958;4.540;2022-12-20T07:34:42;100775.16;;;11.91
13304;BMP280;6720;51.958;4.540;2022-12-20T07:37:07;100781.22;;;11.94
13304;BMP280;6720;51.958;4.540;2022-12-20T07:39:33;100772.56;;;11.89
13304;BMP280;6720;51.958;4.540;2022-12-20T07:41:58;100781.28;;;11.91
13304;BMP280;6720;51.958;4.540;2022-12-20T07:44:24;100777.88;;;11.88
13304;BMP280;6720;51.958;4.540;2022-12-20T07:46:49;100773.75;;;11.76
13304;BMP280;6720;51.958;4.540;2022-12-20T07:49:15;100778.03;;;11.80
13304;BMP280;6720;51.958;4.540;2022-12-20T07:51:43;100777.28;;;11.75
13304;BMP280;6720;51.958;4.540;2022-12-20T07:54:17;100770.38;;;11.71
13304;BMP280;6720;51.958;4.540;2022-12-20T07:56:48;100760.41;;;11.46
13304;BMP280;6720;51.958;4.540;2022-12-20T07:59:19;100762.03;;;11.51
13304;BMP280;6720;51.958;4.540;2022-12-20T08:01:45;100778.47;;;11.59
13304;BMP280;6720;51.958;4.540;2022-12-20T08:04:18;100780.34;;;11.54
13304;BMP280;6720;51.958;4.540;2022-12-20T08:06:44;100778.47;;;11.59
13304;BMP280;6720;51.958;4.540;2022-12-20T08:09:11;100769.81;;;11.56
13304;BMP280;6720;51.958;4.540;2022-12-20T08:11:39;100770.75;;;11.53
13304;BMP280;6720;51.958;4.540;2022-12-20T08:14:05;100781.19;;;11.56
13304;BMP280;6720;51.958;4.540;2022-12-20T08:16:32;100773.66;;;11.41
13304;BMP280;6720;51.958;4.540;2022-12-20T08:18:58;100754.97;;;11.56
13304;BMP280;6720;51.958;4.540;2022-12-20T08:21:23;100769.91;;;11.51
13304;BMP280;6720;51.958;4.540;2022-12-20T08:23:49;100774.09;;;11.60
13304;BMP280;6720;51.958;4.540;2022-12-20T08:26:16;100777.69;;;11.56
13304;BMP280;6720;51.958;4.540;2022-12-20T08:28:41;100775.00;;;11.59
13304;BMP280;6720;51.958;4.540;2022-12-20T08:31:08;100755.81;;;11.57
13304;BMP280;6720;51.958;4.540;2022-12-20T08:33:36;100778.47;;;11.59
13304;BMP280;6720;51.958;4.540;2022-12-20T08:36:04;100755.84;;;11.55
13304;BMP280;6720;51.958;4.540;2022-12-20T08:38:31;100771.34;;;11.67
13304;BMP280;6720;51.958;4.540;2022-12-20T08:41:03;100783.50;;;11.71
13304;BMP280;6720;51.958;4.540;2022-12-20T08:43:30;100778.34;;;11.67
13304;BMP280;6720;51.958;4.540;2022-12-20T08:45:56;100773.44;;;11.50
13304;BMP280;6720;51.958;4.540;2022-12-20T08:48:22;100777.78;;;11.51
13304;BMP280;6720;51.958;4.540;2022-12-20T08:50:53;100775.16;;;11.51
13304;BMP280;6720;51.958;4.540;2022-12-20T08:53:19;100780.59;;;11.42
13304;BMP280;6720;51.958;4.540;2022-12-20T08:55:45;100789.28;;;11.44
13304;BMP280;6720;51.958;4.540;2022-12-20T08:58:10;100773.00;;;11.30
13304;BMP280;6720;51.958;4.540;2022-12-20T09:00:36;100779.06;;;11.32
13304;BMP280;6720;51.958;4.540;2022-12-20T09:03:02;100778.09;;;11.36
13304;BMP280;6720;51.958;4.540;2022-12-20T09:05:27;100774.03;;;11.23
13304;BMP280;6720;51.958;4.540;2022-12-20T09:07:53;100783.50;;;11.30
13304;BMP280;6720;51.958;4.540;2022-12-20T09:10:18;100782.59;;;11.31
13304;BMP280;6720;51.958;4.540;2022-12-20T09:12:44;100789.53;;;11.32
13304;BMP280;6720;51.958;4.540;2022-12-20T09:15:09;100793.28;;;11.22
13304;BMP280;6720;51.958;4.540;2022-12-20T09:17:35;100786.22;;;11.24
13304;BMP280;6720;51.958;4.540;2022-12-20T09:20:02;100787.09;;;11.24
13304;BMP280;6720;51.958;4.540;2022-12-20T09:22:28;100779.25;;;11.23
13304;BMP280;6720;51.958;4.540;2022-12-20T09:24:53;100788.72;;;11.32
13304;BMP280;6720;51.958;4.540;2022-12-20T09:27:19;100793.97;;;11.30
13304;BMP280;6720;51.958;4.540;2022-12-20T09:29:45;100783.56;;;11.25
13304;BMP280;6720;51.958;4.540;2022-12-20T09:32:11;100785.97;;;11.36
13304;BMP280;6720;51.958;4.540;2022-12-20T09:34:37;100774.97;;;11.20
13304;BMP280;6720;51.958;4.540;2022-12-20T09:37:03;100787.94;;;11.25
13304;BMP280;6720;51.958;4.540;2022-12-20T09:39:29;100782.53;;;11.34
13304;BMP280;6720;51.958;4.540;2022-12-20T09:41:54;100779.22;;;11.26
13304;BMP280;6720;51.958;4.540;2022-12-20T09:44:28;100791.66;;;11.15
13304;BMP280;6720;51.958;4.540;2022-12-20T09:46:58;100770.53;;;11.22
13304;BMP280;6720;51.958;4.540;2022-12-20T09:49:28;100767.91;;;11.22
13304;BMP280;6720;51.958;4.540;2022-12-20T10:00:15;100794.63;;;11.41
13304;BMP280;6720;51.958;4.540;2022-12-20T10:02:41;100779.25;;;11.23
13304;BMP280;6720;51.958;4.540;2022-12-20T10:05:16;100774.06;;;11.21
13304;BMP280;6720;51.958;4.540;2022-12-20T10:07:49;100789.50;;;11.35
13304;BMP280;6720;51.958;4.540;2022-12-20T10:10:34;100777.66;;;11.16
13304;BMP280;6720;51.958;4.540;2022-12-20T10:22:09;100765.41;;;11.18
13304;BMP280;6720;51.958;4.540;2022-12-20T10:24:40;100772.00;;;11.37
13304;BMP280;6720;51.958;4.540;2022-12-20T10:27:14;100784.25;;;11.35
13304;BMP280;6720;51.958;4.540;2022-12-20T10:29:40;100782.53;;;11.34
13304;BMP280;6720;51.958;4.540;2022-12-20T10:32:12;100780.63;;;11.41
13304;BMP280;6720;51.958;4.540;2022-12-20T10:34:38;100779.00;;;11.35
13304;BMP280;6720;51.958;4.540;2022-12-20T10:37:14;100787.78;;;11.34
13304;BMP280;6720;51.958;4.540;2022-12-20T10:39:45;100771.19;;;11.33
13304;BMP280;6720;51.958;4.540;2022-12-20T10:42:27;100772.09;;;11.31
13304;BMP280;6720;51.958;4.540;2022-12-20T10:44:55;100770.13;;;11.42
13304;BMP280;6720;51.958;4.540;2022-12-20T10:47:34;100779.06;;;11.32
13304;BMP280;6720;51.958;4.540;2022-12-20T10:50:15;100778.09;;;11.36
13304;BMP280;6720;51.958;4.540;2022-12-20T10:52:42;100774.75;;;11.29
13304;BMP280;6720;51.958;4.540;2022-12-20T10:55:46;100776.56;;;11.27
13304;BMP280;6720;51.958;4.540;2022-12-20T10:58:14;100780.72;;;11.36
13304;BMP280;6720;51.958;4.540;2022-12-20T11:00:39;100770.38;;;11.30
13304;BMP280;6720;51.958;4.540;2022-12-20T11:03:20;100765.94;;;11.33
13304;BMP280;6720;51.958;4.540;2022-12-20T11:05:57;100765.00;;;11.36
13304;BMP280;6720;51.958;4.540;2022-12-20T11:08:24;100770.19;;;11.39
13304;BMP280;6720;51.958;4.540;2022-12-20T11:11:10;100753.75;;;11.31
13304;BMP280;6720;51.958;4.540;2022-12-20T11:13:37;100742.31;;;11.35
13304;BMP280;6720;51.958;4.540;2022-12-20T11:16:02;100767.47;;;11.44
13304;BMP280;6720;51.958;4.540;2022-12-20T11:18:43;100744.91;;;11.37
13304;BMP280;6720;51.958;4.540;2022-12-20T11:21:52;100763.03;;;11.46
13304;BMP280;6720;51.958;4.540;2022-12-20T11:24:30;100749.22;;;11.39
13304;BMP280;6720;51.958;4.540;2022-12-20T11:27:10;100755.22;;;11.44
13304;BMP280;6720;51.958;4.540;2022-12-20T11:32:31;100762.13;;;11.48
13304;BMP280;6720;51.958;4.540;2022-12-20T11:35:06;100756.00;;;11.49
13304;BMP280;6720;51.958;4.540;2022-12-20T11:40:32;100757.06;;;11.39
13304;BMP280;6720;51.958;4.540;2022-12-20T11:51:22;100737.69;;;11.48
13304;BMP280;6720;51.958;4.540;2022-12-20T11:53:56;100716.91;;;11.39
13304;BMP280;6720;51.958;4.540;2022-12-20T11:56:34;100738.34;;;11.57
13304;BMP280;6720;51.958;4.540;2022-12-20T11:59:02;100746.28;;;11.53
13304;BMP280;6720;51.958;4.540;2022-12-20T12:01:43;100743.72;;;11.50
13304;BMP280;6720;51.958;4.540;2022-12-20T12:04:14;100746.97;;;11.62
13304;BMP280;6720;51.958;4.540;2022-12-20T12:09:38;100747.16;;;11.53
13304;BMP280;6720;51.958;4.540;2022-12-20T12:12:22;100730.75;;;11.45
13304;BMP280;6720;51.958;4.540;2022-12-20T12:15:02;100742.91;;;11.48
13304;BMP280;6720;51.958;4.540;2022-12-20T12:25:54;100747.22;;;11.50
13304;BMP280;6720;51.958;4.540;2022-12-20T12:28:21;100737.88;;;11.39
13304;BMP280;6720;51.958;4.540;2022-12-20T12:30:57;100730.94;;;11.36
13304;BMP280;6720;51.958;4.540;2022-12-20T12:33:29;100734.25;;;11.44
13304;BMP280;6720;51.958;4.540;2022-12-20T12:36:15;100729.22;;;11.35
13304;BMP280;6720;51.958;4.540;2022-12-20T12:46:44;100735.97;;;11.47
13304;BMP280;6720;51.958;4.540;2022-12-20T12:49:21;100736.94;;;11.41
13304;BMP280;6720;51.958;4.540;2022-12-20T12:51:51;100738.66;;;11.42
13304;BMP280;6720;51.958;4.540;2022-12-20T12:54:21;100733.44;;;11.42
13304;BMP280;6720;51.958;4.540;2022-12-20T12:56:51;100737.06;;;11.35
13304;BMP280;6720;51.958;4.540;2022-12-20T13:19:54;100744.31;;;11.64
13304;BMP280;6720;51.958;4.540;2022-12-20T13:22:23;100743.50;;;11.60
13304;BMP280;6720;51.958;4.540;2022-12-20T13:24:59;100729.88;;;11.45
13304;BMP280;6720;51.958;4.540;2022-12-20T13:27:45;100727.28;;;11.43
13304;BMP280;6720;51.958;4.540;2022-12-20T13:32:58;100730.72;;;11.47
13304;BMP280;6720;51.958;4.540;2022-12-20T13:35:30;100740.38;;;11.43
13304;BMP280;6720;51.958;4.540;2022-12-20T13:38:00;100732.56;;;11.42
13304;BMP280;6720;51.958;4.540;2022-12-20T13:40:41;100737.97;;;11.34
13304;BMP280;6720;51.958;4.540;2022-12-20T13:45:52;100711.88;;;11.28
13304;BMP280;6720;51.958;4.540;2022-12-20T13:48:25;100731.53;;;11.49
13304;BMP280;6720;51.958;4.540;2022-12-20T13:50:56;100713.38;;;11.41
13304;BMP280;6720;51.958;4.540;2022-12-20T13:53:26;100724.59;;;11.46
13304;BMP280;6720;51.958;4.540;2022-12-20T13:55:52;100731.50;;;11.50
13304;BMP280;6720;51.958;4.540;2022-12-20T13:58:24;100734.47;;;11.33
13304;BMP280;6720;51.958;4.540;2022-12-20T14:00:51;100730.72;;;11.47
13304;BMP280;6720;51.958;4.540;2022-12-20T14:03:24;100726.38;;;11.44
13304;BMP280;6720;51.958;4.540;2022-12-20T14:05:58;100725.47;;;11.47
13304;BMP280;6720;51.958;4.540;2022-12-20T14:08:35;100735.84;;;11.51
13304;BMP280;6720;51.958;4.540;2022-12-20T14:11:09;100727.97;;;11.51
13304;BMP280;6720;51.958;4.540;2022-12-20T14:13:35;100735.19;;;11.40
13304;BMP280;6720;51.958;4.540;2022-12-20T14:16:14;100727.47;;;11.36
13304;BMP280;6720;51.958;4.540;2022-12-20T14:18:40;100740.72;;;11.28
13304;BMP280;6720;51.958;4.540;2022-12-20T14:21:06;100726.72;;;11.29
13304;BMP280;6720;51.958;4.540;2022-12-20T14:23:41;100738.56;;;11.47
13304;BMP280;6720;51.958;4.540;2022-12-20T14:26:37;100733.38;;;11.45
13304;BMP280;6720;51.958;4.540;2022-12-20T14:29:10;100728.25;;;11.39
13304;BMP280;6720;51.958;4.540;2022-12-20T14:31:37;100746.34;;;11.50
13304;BMP280;6720;51.958;4.540;2022-12-20T14:36:32;100728.25;;;11.39
13304;BMP280;6720;51.958;4.540;2022-12-20T14:38:59;100735.31;;;11.37
13304;BMP280;6720;51.958;4.540;2022-12-20T14:44:01;100705.63;;;11.35
13304;BMP280;6720;51.958;4.540;2022-12-20T14:46:28;100719.28;;;11.49
13304;BMP280;6720;51.958;4.540;2022-12-20T14:51:44;100718.59;;;11.41
13304;BMP280;6720;51.958;4.540;2022-12-20T14:54:33;100723.28;;;11.27
13304;BMP280;6720;51.958;4.540;2022-12-20T14:57:00;100722.09;;;11.40
13304;BMP280;6720;51.958;4.540;2022-12-20T14:59:28;100726.53;;;11.38
13304;BMP280;6720;51.958;4.540;2022-12-20T15:01:54;100725.56;;;11.42
13304;BMP280;6720;51.958;4.540;2022-12-20T15:04:31;100737.94;;;11.36
13304;BMP280;6720;51.958;4.540;2022-12-20T15:06:58;100723.91;;;11.38
13304;BMP280;6720;51.958;4.540;2022-12-20T15:09:25;100730.13;;;11.34
13304;BMP280;6720;51.958;4.540;2022-12-20T15:11:55;100734.44;;;11.35
13304;BMP280;6720;51.958;4.540;2022-12-20T15:14:32;100717.91;;;11.33
13304;BMP280;6720;51.958;4.540;2022-12-20T15:17:12;100729.25;;;11.33
13304;BMP280;6720;51.958;4.540;2022-12-20T15:19:42;100727.34;;;11.40
13304;BMP280;6720;51.958;4.540;2022-12-20T15:22:16;100723.75;;;11.44
13304;BMP280;6720;51.958;4.540;2022-12-20T15:24:42;100729.16;;;11.38
13304;BMP280;6720;51.958;4.540;2022-12-20T15:27:14;100729.91;;;11.43
13304;BMP280;6720;51.958;4.540;2022-12-20T15:29:40;100729.97;;;11.40
13304;BMP280;6720;51.958;4.540;2022-12-20T15:32:14;100726.53;;;11.38
13304;BMP280;6720;51.958;4.540;2022-12-20T15:34:40;100735.31;;;11.37
13304;BMP280;6720;51.958;4.540;2022-12-20T15:37:05;100731.84;;;11.35
13304;BMP280;6720;51.958;4.540;2022-12-20T15:39:32;100723.00;;;11.39
13304;BMP280;6720;51.958;4.540;2022-12-20T15:42:00;100726.59;;;11.35
13304;BMP280;6720;51.958;4.540;2022-12-20T15:44:28;100744.19;;;11.30
13304;BMP280;6720;51.958;4.540;2022-12-20T15:46:55;100739.75;;;11.32
13304;BMP280;6720;51.958;4.540;2022-12-20T15:49:26;100737.19;;;11.29
13304;BMP280;6720;51.958;4.540;2022-12-20T15:51:54;100723.41;;;11.21
13304;BMP280;6720;51.958;4.540;2022-12-20T15:54:24;100738.91;;;11.32
13304;BMP280;6720;51.958;4.540;2022-12-20T15:56:52;100740.56;;;11.36
13304;BMP280;6720;51.958;4.540;2022-12-20T15:59:18;100741.44;;;11.34
13304;BMP280;6720;51.958;4.540;2022-12-20T16:01:45;100745.13;;;11.27
13304;BMP280;6720;51.958;4.540;2022-12-20T16:04:16;100739.88;;;11.27